x

Destruction Island, Wa (desw1) Weather Station

8:00pm - Sat 18th Nov 2017 All times are PST. -8 hours from GMT.

  • Wind
    25mph, 28mph gusts
  • Air Temp 48°f
  • Sea Pressure 1018.6mb
  • Destruction Island, Wa
  • Destruction Island, Wa

More Historic Weather Station data

Upgrade to MSW Pro to gain access to the past 30 days of data for over 8000 Wavebouys and Weather Stations around the globe.

Join

Comparision Forecast

View Surf forecast
   
Sat 11/18 8:00pm 25 28 mph 1018.6mb 48f
7:00pm 24 26 mph 1019mb 48f
6:00pm 22 24 mph 1019.4mb 49f
5:00pm 20 22 mph 1019.8mb 49f
4:00pm 23 25 mph 1019.9mb 50f
3:00pm 20 21 mph 1020.3mb 49f
2:00pm 21 22 mph 1020.9mb 49f
1:00pm 23 25 mph 1021.5mb 48f
12:00pm 23 25 mph 1022.4mb 48f
11:00am 25 28 mph 1022.9mb 47f
10:00am 24 26 mph 1023.2mb 47f
9:00am 23 24 mph 1023.5mb 47f
8:00am 25 28 mph 1023.5mb 46f
7:00am 21 23 mph 1023.9mb 46f
6:00am 23 24 mph 1024mb 46f
5:00am 22 23 mph 1024mb 46f
4:00am 22 23 mph 1024.1mb 46f
3:00am 24 25 mph 1024.6mb 46f
2:00am 22 23 mph 1024.6mb 46f
1:00am 23 24 mph 1024.8mb 46f
12:00am 21 24 mph 1024.9mb 46f
Fri 11/17 11:00pm 20 22 mph 1024.8mb 46f
10:00pm 21 22 mph 1024.5mb 46f
9:00pm 18 20 mph 1024.2mb 46f
8:00pm 20 21 mph 1024mb 46f
7:00pm 18 21 mph 1023.7mb 46f
6:00pm 16 17 mph 1023.5mb 46f
5:00pm 10 11 mph 1022.9mb 47f
4:00pm 8 8 mph 1022.6mb 46f
3:00pm 5 6 mph 1021.9mb 46f
2:00pm 10 11 mph 1021.2mb 49f
1:00pm 9 11 mph 1020.6mb 48f
12:00pm 10 11 mph 1019.7mb 46f
11:00am 7 8 mph 1019.1mb 47f
10:00am 10 11 mph 1018mb 46f
9:00am 10 13 mph 1016.9mb 44f
8:00am 10 14 mph 1015.4mb 44f
7:00am 1 3 mph 1014.1mb 45f
6:00am 8 9 mph 1013.2mb 44f
5:00am 10 13 mph 1012.2mb 44f
4:00am 2 3 mph 1011.2mb 45f
3:00am 6 9 mph 1010.8mb 47f
2:00am 10 13 mph 1009.7mb 45f
1:00am 18 21 mph 1008.5mb 47f
12:00am 11 16 mph 1007.6mb 47f
Thu 11/16 11:00pm 20 22 mph 1006.6mb 48f
10:00pm 16 17 mph 1005.7mb 46f
9:00pm 22 24 mph 1004.6mb 48f
8:00pm 26 30 mph 1004mb 48f
7:00pm 16 17 mph 1003.5mb 47f
6:00pm 15 17 mph 1003.2mb 44f
5:00pm 20 22 mph 1003mb 46f
4:00pm 3 6 mph 1002.8mb 45f
3:00pm 24 26 mph 1002.2mb 45f
2:00pm 28 29 mph 1001.8mb 46f
1:00pm 25 28 mph 1002mb 45f
12:00pm 24 26 mph 1002.1mb 45f
11:00am 25 26 mph 1002.4mb 44f
10:00am 21 23 mph 1002.4mb 43f
9:00am 29 32 mph 1002mb 43f
8:00am 23 24 mph 1001.1mb 45f
7:00am 18 21 mph 1000.8mb 45f
6:00am 22 24 mph 1000.6mb 44f
5:00am 18 21 mph 1000.4mb 44f
4:00am 16 18 mph 1000.2mb 45f
3:00am 23 24 mph 999.8mb 44f
2:00am 21 23 mph 999.4mb 44f
1:00am 24 26 mph 999.4mb 44f
12:00am 23 25 mph 999.1mb 44f
Wed 11/15 11:00pm 24 28 mph 998.6mb 44f
10:00pm 24 25 mph 998.6mb 44f
9:00pm 16 18 mph 999.1mb 44f
8:00pm 21 22 mph 999.3mb 44f
7:00pm 25 26 mph 998.9mb 45f
6:00pm 21 23 mph 999.4mb 45f
5:00pm 21 23 mph 1000mb 46f
4:00pm 21 23 mph 1000.3mb 46f
3:00pm 21 23 mph 1000.5mb 48f
2:00pm 26 29 mph 1001.3mb 47f
1:00pm 31 33 mph 1000.8mb 51f
12:00pm 26 31 mph 1001.3mb 51f
11:00am 23 26 mph 1001.9mb 48f
10:00am 23 26 mph 1001.8mb 47f
9:00am 21 26 mph 1002mb 47f
8:00am 26 30 mph 1002mb 48f
7:00am 22 28 mph 1002mb 47f
6:00am 21 26 mph 1001.8mb 49f